sensor_id;sensor_type;location;lat;lon;timestamp;temperature;humidity
32865;DHT22;19219;44.500;11.188;2024-02-26T00:01:39;6.40;99.90
32865;DHT22;19219;44.500;11.188;2024-02-26T00:04:05;6.40;99.90
32865;DHT22;19219;44.500;11.188;2024-02-26T00:06:31;6.60;99.90
32865;DHT22;19219;44.500;11.188;2024-02-26T00:08:57;6.70;99.90
32865;DHT22;19219;44.500;11.188;2024-02-26T00:11:22;6.70;99.90
32865;DHT22;19219;44.500;11.188;2024-02-26T00:13:48;6.80;99.90
32865;DHT22;19219;44.500;11.188;2024-02-26T00:16:14;6.70;99.90
32865;DHT22;19219;44.500;11.188;2024-02-26T00:18:39;6.80;99.90
32865;DHT22;19219;44.500;11.188;2024-02-26T00:21:05;6.80;99.90
32865;DHT22;19219;44.500;11.188;2024-02-26T00:23:31;6.90;99.90
32865;DHT22;19219;44.500;11.188;2024-02-26T00:25:57;7.00;99.90
32865;DHT22;19219;44.500;11.188;2024-02-26T00:28:23;7.00;99.90
32865;DHT22;19219;44.500;11.188;2024-02-26T00:30:50;7.10;99.90
32865;DHT22;19219;44.500;11.188;2024-02-26T00:33:17;7.10;99.90
32865;DHT22;19219;44.500;11.188;2024-02-26T00:35:42;7.20;99.90
32865;DHT22;19219;44.500;11.188;2024-02-26T00:38:08;7.20;99.90
32865;DHT22;19219;44.500;11.188;2024-02-26T00:40:34;7.30;99.90
32865;DHT22;19219;44.500;11.188;2024-02-26T00:43:00;7.30;99.90
32865;DHT22;19219;44.500;11.188;2024-02-26T00:45:25;7.40;99.90
32865;DHT22;19219;44.500;11.188;2024-02-26T00:47:51;7.40;99.90
32865;DHT22;19219;44.500;11.188;2024-02-26T00:50:17;7.40;99.90
32865;DHT22;19219;44.500;11.188;2024-02-26T00:52:42;7.40;99.90
32865;DHT22;19219;44.500;11.188;2024-02-26T00:55:08;7.50;99.90
32865;DHT22;19219;44.500;11.188;2024-02-26T00:57:34;7.60;99.90
32865;DHT22;19219;44.500;11.188;2024-02-26T01:00:00;7.60;99.90
32865;DHT22;19219;44.500;11.188;2024-02-26T01:02:26;7.50;99.90
32865;DHT22;19219;44.500;11.188;2024-02-26T01:04:52;7.60;99.90
32865;DHT22;19219;44.500;11.188;2024-02-26T01:07:18;7.60;99.90
32865;DHT22;19219;44.500;11.188;2024-02-26T01:09:44;7.60;99.90
32865;DHT22;19219;44.500;11.188;2024-02-26T01:12:10;7.60;99.90
32865;DHT22;19219;44.500;11.188;2024-02-26T01:14:35;7.60;99.90
32865;DHT22;19219;44.500;11.188;2024-02-26T01:17:01;7.60;99.90
32865;DHT22;19219;44.500;11.188;2024-02-26T01:19:27;7.60;99.90
32865;DHT22;19219;44.500;11.188;2024-02-26T01:21:53;7.50;99.90
32865;DHT22;19219;44.500;11.188;2024-02-26T01:24:19;7.50;99.90
32865;DHT22;19219;44.500;11.188;2024-02-26T01:26:44;7.40;99.90
32865;DHT22;19219;44.500;11.188;2024-02-26T01:29:10;7.40;99.90
32865;DHT22;19219;44.500;11.188;2024-02-26T01:31:35;7.50;99.90
32865;DHT22;19219;44.500;11.188;2024-02-26T01:34:01;7.50;99.90
32865;DHT22;19219;44.500;11.188;2024-02-26T01:36:27;7.50;99.90
32865;DHT22;19219;44.500;11.188;2024-02-26T01:38:53;7.60;99.90
32865;DHT22;19219;44.500;11.188;2024-02-26T01:41:18;7.50;99.90
32865;DHT22;19219;44.500;11.188;2024-02-26T01:43:44;7.50;99.90
32865;DHT22;19219;44.500;11.188;2024-02-26T01:46:13;7.60;99.90
32865;DHT22;19219;44.500;11.188;2024-02-26T01:48:41;7.60;99.90
32865;DHT22;19219;44.500;11.188;2024-02-26T01:51:07;7.60;99.90
32865;DHT22;19219;44.500;11.188;2024-02-26T01:53:33;7.60;99.90
32865;DHT22;19219;44.500;11.188;2024-02-26T01:55:59;7.60;99.90
32865;DHT22;19219;44.500;11.188;2024-02-26T01:58:25;7.60;99.90
32865;DHT22;19219;44.500;11.188;2024-02-26T02:00:51;7.60;99.90
32865;DHT22;19219;44.500;11.188;2024-02-26T02:03:16;7.60;99.90
32865;DHT22;19219;44.500;11.188;2024-02-26T02:05:42;7.50;99.90
32865;DHT22;19219;44.500;11.188;2024-02-26T02:08:10;7.50;99.90
32865;DHT22;19219;44.500;11.188;2024-02-26T02:10:38;7.50;99.90
32865;DHT22;19219;44.500;11.188;2024-02-26T02:13:04;7.50;99.90
32865;DHT22;19219;44.500;11.188;2024-02-26T02:15:29;7.40;99.90
32865;DHT22;19219;44.500;11.188;2024-02-26T02:17:55;7.50;99.90
32865;DHT22;19219;44.500;11.188;2024-02-26T02:20:47;7.50;99.90
32865;DHT22;19219;44.500;11.188;2024-02-26T02:23:13;7.40;99.90
32865;DHT22;19219;44.500;11.188;2024-02-26T02:25:39;7.30;99.90
32865;DHT22;19219;44.500;11.188;2024-02-26T02:28:06;7.20;99.90
32865;DHT22;19219;44.500;11.188;2024-02-26T02:30:32;7.20;99.90
32865;DHT22;19219;44.500;11.188;2024-02-26T02:32:59;7.10;99.90
32865;DHT22;19219;44.500;11.188;2024-02-26T02:35:25;7.10;99.90
32865;DHT22;19219;44.500;11.188;2024-02-26T02:37:52;7.10;99.90
32865;DHT22;19219;44.500;11.188;2024-02-26T02:40:18;7.10;99.90
32865;DHT22;19219;44.500;11.188;2024-02-26T02:42:44;7.00;99.90
32865;DHT22;19219;44.500;11.188;2024-02-26T02:45:10;7.00;99.90
32865;DHT22;19219;44.500;11.188;2024-02-26T02:47:40;7.20;99.90
32865;DHT22;19219;44.500;11.188;2024-02-26T02:50:06;7.20;99.90
32865;DHT22;19219;44.500;11.188;2024-02-26T02:52:31;7.30;99.90
32865;DHT22;19219;44.500;11.188;2024-02-26T02:54:58;7.30;99.90
32865;DHT22;19219;44.500;11.188;2024-02-26T02:57:23;7.30;99.90
32865;DHT22;19219;44.500;11.188;2024-02-26T02:59:49;7.30;99.90
32865;DHT22;19219;44.500;11.188;2024-02-26T03:02:15;7.40;99.90
32865;DHT22;19219;44.500;11.188;2024-02-26T03:04:40;7.40;99.90
32865;DHT22;19219;44.500;11.188;2024-02-26T03:07:06;7.40;99.90
32865;DHT22;19219;44.500;11.188;2024-02-26T03:09:32;7.30;99.90
32865;DHT22;19219;44.500;11.188;2024-02-26T03:11:57;7.20;99.90
32865;DHT22;19219;44.500;11.188;2024-02-26T03:14:23;7.20;99.90
32865;DHT22;19219;44.500;11.188;2024-02-26T03:16:54;7.20;99.90
32865;DHT22;19219;44.500;11.188;2024-02-26T03:19:19;7.00;99.90
32865;DHT22;19219;44.500;11.188;2024-02-26T03:21:45;7.00;99.90
32865;DHT22;19219;44.500;11.188;2024-02-26T03:24:10;7.00;99.90
32865;DHT22;19219;44.500;11.188;2024-02-26T03:26:37;7.10;99.90
32865;DHT22;19219;44.500;11.188;2024-02-26T03:29:03;7.00;99.90
32865;DHT22;19219;44.500;11.188;2024-02-26T03:31:29;7.00;99.90
32865;DHT22;19219;44.500;11.188;2024-02-26T03:33:55;7.00;99.90
32865;DHT22;19219;44.500;11.188;2024-02-26T03:36:20;7.00;99.90
32865;DHT22;19219;44.500;11.188;2024-02-26T03:38:49;7.00;99.90
32865;DHT22;19219;44.500;11.188;2024-02-26T03:41:15;7.10;99.90
32865;DHT22;19219;44.500;11.188;2024-02-26T03:43:41;7.10;99.90
32865;DHT22;19219;44.500;11.188;2024-02-26T03:46:09;7.10;99.90
32865;DHT22;19219;44.500;11.188;2024-02-26T03:48:40;7.10;99.90
32865;DHT22;19219;44.500;11.188;2024-02-26T03:51:06;7.00;99.90
32865;DHT22;19219;44.500;11.188;2024-02-26T03:53:31;7.10;99.90
32865;DHT22;19219;44.500;11.188;2024-02-26T03:55:57;7.00;99.90
32865;DHT22;19219;44.500;11.188;2024-02-26T03:58:23;7.10;99.90
32865;DHT22;19219;44.500;11.188;2024-02-26T04:00:48;7.10;99.90
32865;DHT22;19219;44.500;11.188;2024-02-26T04:03:14;7.10;99.90
32865;DHT22;19219;44.500;11.188;2024-02-26T04:05:40;7.10;99.90
32865;DHT22;19219;44.500;11.188;2024-02-26T04:08:06;7.10;99.90
32865;DHT22;19219;44.500;11.188;2024-02-26T04:10:33;7.10;99.90
32865;DHT22;19219;44.500;11.188;2024-02-26T04:13:00;7.30;99.90
32865;DHT22;19219;44.500;11.188;2024-02-26T04:15:26;7.30;99.90
32865;DHT22;19219;44.500;11.188;2024-02-26T04:17:52;7.30;99.90
32865;DHT22;19219;44.500;11.188;2024-02-26T04:20:18;7.40;99.90
32865;DHT22;19219;44.500;11.188;2024-02-26T04:22:43;7.50;99.90
32865;DHT22;19219;44.500;11.188;2024-02-26T04:25:09;7.50;99.90
32865;DHT22;19219;44.500;11.188;2024-02-26T04:27:35;7.50;99.90
32865;DHT22;19219;44.500;11.188;2024-02-26T04:30:01;7.50;99.90
32865;DHT22;19219;44.500;11.188;2024-02-26T04:32:26;7.60;99.90
32865;DHT22;19219;44.500;11.188;2024-02-26T04:34:53;7.50;99.90
32865;DHT22;19219;44.500;11.188;2024-02-26T04:37:19;7.40;99.90
32865;DHT22;19219;44.500;11.188;2024-02-26T04:39:45;7.20;99.90
32865;DHT22;19219;44.500;11.188;2024-02-26T04:42:11;7.20;99.90
32865;DHT22;19219;44.500;11.188;2024-02-26T04:44:37;7.20;99.90
32865;DHT22;19219;44.500;11.188;2024-02-26T04:47:02;7.20;99.90
32865;DHT22;19219;44.500;11.188;2024-02-26T04:49:28;7.20;99.90
32865;DHT22;19219;44.500;11.188;2024-02-26T04:51:54;7.10;99.90
32865;DHT22;19219;44.500;11.188;2024-02-26T04:54:21;7.00;99.90
32865;DHT22;19219;44.500;11.188;2024-02-26T04:56:46;6.90;99.90
32865;DHT22;19219;44.500;11.188;2024-02-26T04:59:12;6.80;99.90
32865;DHT22;19219;44.500;11.188;2024-02-26T05:01:39;6.70;99.90
32865;DHT22;19219;44.500;11.188;2024-02-26T05:04:05;6.70;99.90
32865;DHT22;19219;44.500;11.188;2024-02-26T05:06:30;6.70;99.90
32865;DHT22;19219;44.500;11.188;2024-02-26T05:08:56;6.70;99.90
32865;DHT22;19219;44.500;11.188;2024-02-26T05:11:22;6.80;99.90
32865;DHT22;19219;44.500;11.188;2024-02-26T05:13:48;6.80;99.90
32865;DHT22;19219;44.500;11.188;2024-02-26T05:16:14;6.80;99.90
32865;DHT22;19219;44.500;11.188;2024-02-26T05:18:39;6.90;99.90
32865;DHT22;19219;44.500;11.188;2024-02-26T05:21:05;7.00;99.90
32865;DHT22;19219;44.500;11.188;2024-02-26T05:23:31;7.00;99.90
32865;DHT22;19219;44.500;11.188;2024-02-26T05:25:57;7.10;99.90
32865;DHT22;19219;44.500;11.188;2024-02-26T05:28:22;7.20;99.90
32865;DHT22;19219;44.500;11.188;2024-02-26T05:30:48;7.10;99.90
32865;DHT22;19219;44.500;11.188;2024-02-26T05:33:14;7.00;99.90
32865;DHT22;19219;44.500;11.188;2024-02-26T05:35:39;7.00;99.90
32865;DHT22;19219;44.500;11.188;2024-02-26T05:38:06;7.00;99.90
32865;DHT22;19219;44.500;11.188;2024-02-26T05:40:31;7.00;99.90
32865;DHT22;19219;44.500;11.188;2024-02-26T05:42:57;7.00;99.90
32865;DHT22;19219;44.500;11.188;2024-02-26T05:45:23;7.00;99.90
32865;DHT22;19219;44.500;11.188;2024-02-26T05:47:48;7.10;99.90
32865;DHT22;19219;44.500;11.188;2024-02-26T05:50:15;7.20;99.90
32865;DHT22;19219;44.500;11.188;2024-02-26T05:52:41;7.10;99.90
32865;DHT22;19219;44.500;11.188;2024-02-26T05:55:08;7.20;99.90
32865;DHT22;19219;44.500;11.188;2024-02-26T05:57:34;7.20;99.90
32865;DHT22;19219;44.500;11.188;2024-02-26T06:00:00;7.30;99.90
32865;DHT22;19219;44.500;11.188;2024-02-26T06:02:30;7.30;99.90
32865;DHT22;19219;44.500;11.188;2024-02-26T06:04:55;7.30;99.90
32865;DHT22;19219;44.500;11.188;2024-02-26T06:07:21;7.30;99.90
32865;DHT22;19219;44.500;11.188;2024-02-26T06:09:47;7.30;99.90
32865;DHT22;19219;44.500;11.188;2024-02-26T06:12:14;7.30;99.90
32865;DHT22;19219;44.500;11.188;2024-02-26T06:14:39;7.30;99.90
32865;DHT22;19219;44.500;11.188;2024-02-26T06:17:05;7.40;99.90
32865;DHT22;19219;44.500;11.188;2024-02-26T06:19:32;7.50;99.90
32865;DHT22;19219;44.500;11.188;2024-02-26T06:21:58;7.60;99.90
32865;DHT22;19219;44.500;11.188;2024-02-26T06:24:24;7.70;99.90
32865;DHT22;19219;44.500;11.188;2024-02-26T06:26:49;7.70;99.90
32865;DHT22;19219;44.500;11.188;2024-02-26T06:29:15;7.80;99.90
32865;DHT22;19219;44.500;11.188;2024-02-26T06:31:41;7.90;99.90
32865;DHT22;19219;44.500;11.188;2024-02-26T06:34:07;8.00;99.90
32865;DHT22;19219;44.500;11.188;2024-02-26T06:36:32;7.90;99.90
32865;DHT22;19219;44.500;11.188;2024-02-26T06:38:58;8.00;99.90
32865;DHT22;19219;44.500;11.188;2024-02-26T06:41:24;8.00;99.90
32865;DHT22;19219;44.500;11.188;2024-02-26T06:43:54;8.00;99.90
32865;DHT22;19219;44.500;11.188;2024-02-26T06:46:20;8.00;99.90
32865;DHT22;19219;44.500;11.188;2024-02-26T06:48:45;8.00;99.90
32865;DHT22;19219;44.500;11.188;2024-02-26T06:51:11;8.00;99.90
32865;DHT22;19219;44.500;11.188;2024-02-26T06:53:37;8.00;99.90
32865;DHT22;19219;44.500;11.188;2024-02-26T06:56:02;8.10;99.90
32865;DHT22;19219;44.500;11.188;2024-02-26T06:58:28;8.20;99.90
32865;DHT22;19219;44.500;11.188;2024-02-26T07:00:54;8.30;99.90
32865;DHT22;19219;44.500;11.188;2024-02-26T07:03:20;8.20;99.90
32865;DHT22;19219;44.500;11.188;2024-02-26T07:05:45;8.30;99.90
32865;DHT22;19219;44.500;11.188;2024-02-26T07:08:11;8.30;99.90
32865;DHT22;19219;44.500;11.188;2024-02-26T07:10:37;8.40;99.90
32865;DHT22;19219;44.500;11.188;2024-02-26T07:13:03;8.40;99.90
32865;DHT22;19219;44.500;11.188;2024-02-26T07:15:29;8.40;99.90
32865;DHT22;19219;44.500;11.188;2024-02-26T07:17:54;8.40;99.90
32865;DHT22;19219;44.500;11.188;2024-02-26T07:20:20;8.30;99.90
32865;DHT22;19219;44.500;11.188;2024-02-26T07:22:46;8.30;99.90
32865;DHT22;19219;44.500;11.188;2024-02-26T07:25:12;8.30;99.90
32865;DHT22;19219;44.500;11.188;2024-02-26T07:27:39;8.30;99.90
32865;DHT22;19219;44.500;11.188;2024-02-26T07:30:06;8.20;99.90
32865;DHT22;19219;44.500;11.188;2024-02-26T07:32:34;8.20;99.90
32865;DHT22;19219;44.500;11.188;2024-02-26T07:35:00;8.10;99.90
32865;DHT22;19219;44.500;11.188;2024-02-26T07:37:25;8.00;99.90
32865;DHT22;19219;44.500;11.188;2024-02-26T07:39:52;7.80;99.90
32865;DHT22;19219;44.500;11.188;2024-02-26T07:42:18;7.70;99.90
32865;DHT22;19219;44.500;11.188;2024-02-26T07:44:44;7.70;99.90
32865;DHT22;19219;44.500;11.188;2024-02-26T07:47:10;7.80;99.90
32865;DHT22;19219;44.500;11.188;2024-02-26T07:49:35;7.70;99.90
32865;DHT22;19219;44.500;11.188;2024-02-26T07:52:01;7.80;99.90
32865;DHT22;19219;44.500;11.188;2024-02-26T07:54:27;7.80;99.90
32865;DHT22;19219;44.500;11.188;2024-02-26T07:56:53;7.80;99.90
32865;DHT22;19219;44.500;11.188;2024-02-26T07:59:18;7.80;99.90
32865;DHT22;19219;44.500;11.188;2024-02-26T08:01:49;7.80;99.90
32865;DHT22;19219;44.500;11.188;2024-02-26T08:04:15;7.80;99.90
32865;DHT22;19219;44.500;11.188;2024-02-26T08:06:41;7.80;99.90
32865;DHT22;19219;44.500;11.188;2024-02-26T08:09:08;7.80;99.90
32865;DHT22;19219;44.500;11.188;2024-02-26T08:11:34;7.90;99.90
32865;DHT22;19219;44.500;11.188;2024-02-26T08:14:00;8.00;99.90
32865;DHT22;19219;44.500;11.188;2024-02-26T08:16:26;8.10;99.90
32865;DHT22;19219;44.500;11.188;2024-02-26T08:18:52;8.10;99.90
32865;DHT22;19219;44.500;11.188;2024-02-26T08:21:18;8.20;99.90
32865;DHT22;19219;44.500;11.188;2024-02-26T08:23:44;8.30;99.90
32865;DHT22;19219;44.500;11.188;2024-02-26T08:26:09;8.30;99.90
32865;DHT22;19219;44.500;11.188;2024-02-26T08:28:39;8.30;99.90
32865;DHT22;19219;44.500;11.188;2024-02-26T08:31:05;8.40;99.90
32865;DHT22;19219;44.500;11.188;2024-02-26T08:33:31;8.40;99.90
32865;DHT22;19219;44.500;11.188;2024-02-26T08:35:57;8.50;99.90
32865;DHT22;19219;44.500;11.188;2024-02-26T08:38:23;8.70;99.90
32865;DHT22;19219;44.500;11.188;2024-02-26T08:40:49;8.80;99.90
32865;DHT22;19219;44.500;11.188;2024-02-26T08:43:15;8.80;99.90
32865;DHT22;19219;44.500;11.188;2024-02-26T08:45:40;8.80;99.90
32865;DHT22;19219;44.500;11.188;2024-02-26T08:48:06;9.00;99.90
32865;DHT22;19219;44.500;11.188;2024-02-26T08:50:33;9.10;99.90
32865;DHT22;19219;44.500;11.188;2024-02-26T08:52:58;9.30;99.90
32865;DHT22;19219;44.500;11.188;2024-02-26T08:55:26;9.60;99.90
32865;DHT22;19219;44.500;11.188;2024-02-26T08:57:52;9.80;99.90
32865;DHT22;19219;44.500;11.188;2024-02-26T09:00:18;10.00;99.90
32865;DHT22;19219;44.500;11.188;2024-02-26T09:02:47;10.10;99.90
32865;DHT22;19219;44.500;11.188;2024-02-26T09:05:12;10.20;99.90
32865;DHT22;19219;44.500;11.188;2024-02-26T09:07:38;10.30;99.90
32865;DHT22;19219;44.500;11.188;2024-02-26T09:10:05;10.30;99.90
32865;DHT22;19219;44.500;11.188;2024-02-26T09:12:33;10.20;99.90
32865;DHT22;19219;44.500;11.188;2024-02-26T09:14:59;10.20;99.90
32865;DHT22;19219;44.500;11.188;2024-02-26T09:17:25;10.10;99.90
32865;DHT22;19219;44.500;11.188;2024-02-26T09:19:50;10.30;99.90
32865;DHT22;19219;44.500;11.188;2024-02-26T09:22:16;10.40;99.90
32865;DHT22;19219;44.500;11.188;2024-02-26T09:24:42;10.30;99.90
32865;DHT22;19219;44.500;11.188;2024-02-26T09:27:07;10.40;99.90
32865;DHT22;19219;44.500;11.188;2024-02-26T09:29:35;10.50;99.90
32865;DHT22;19219;44.500;11.188;2024-02-26T09:32:01;10.60;99.90
32865;DHT22;19219;44.500;11.188;2024-02-26T09:34:26;10.70;99.90
32865;DHT22;19219;44.500;11.188;2024-02-26T09:36:52;10.70;99.90
32865;DHT22;19219;44.500;11.188;2024-02-26T09:39:18;10.80;99.90
32865;DHT22;19219;44.500;11.188;2024-02-26T09:41:50;10.80;99.90
32865;DHT22;19219;44.500;11.188;2024-02-26T09:44:20;10.80;99.90
32865;DHT22;19219;44.500;11.188;2024-02-26T09:46:48;10.80;99.90
32865;DHT22;19219;44.500;11.188;2024-02-26T09:49:17;10.70;99.90
32865;DHT22;19219;44.500;11.188;2024-02-26T09:51:44;10.90;99.90
32865;DHT22;19219;44.500;11.188;2024-02-26T09:54:10;11.00;99.90
32865;DHT22;19219;44.500;11.188;2024-02-26T09:56:39;11.00;99.90
32865;DHT22;19219;44.500;11.188;2024-02-26T09:59:13;11.10;99.90
32865;DHT22;19219;44.500;11.188;2024-02-26T10:01:42;11.20;99.90
32865;DHT22;19219;44.500;11.188;2024-02-26T10:04:10;11.30;99.90
32865;DHT22;19219;44.500;11.188;2024-02-26T10:06:37;11.40;99.90
32865;DHT22;19219;44.500;11.188;2024-02-26T10:09:03;11.50;99.90
32865;DHT22;19219;44.500;11.188;2024-02-26T10:11:32;11.60;99.90
32865;DHT22;19219;44.500;11.188;2024-02-26T10:13:58;11.60;99.90
32865;DHT22;19219;44.500;11.188;2024-02-26T10:16:28;11.60;99.90
32865;DHT22;19219;44.500;11.188;2024-02-26T10:18:54;11.50;99.90
32865;DHT22;19219;44.500;11.188;2024-02-26T10:21:20;11.40;99.90
32865;DHT22;19219;44.500;11.188;2024-02-26T10:23:47;11.30;99.90
32865;DHT22;19219;44.500;11.188;2024-02-26T10:26:21;11.30;99.90
32865;DHT22;19219;44.500;11.188;2024-02-26T10:28:48;11.30;99.90
32865;DHT22;19219;44.500;11.188;2024-02-26T10:31:15;11.10;99.90
32865;DHT22;19219;44.500;11.188;2024-02-26T10:33:42;11.00;99.90
32865;DHT22;19219;44.500;11.188;2024-02-26T10:36:08;11.00;99.90
32865;DHT22;19219;44.500;11.188;2024-02-26T10:38:35;11.10;99.90
32865;DHT22;19219;44.500;11.188;2024-02-26T10:41:08;11.10;99.90
32865;DHT22;19219;44.500;11.188;2024-02-26T10:43:38;11.10;99.90
32865;DHT22;19219;44.500;11.188;2024-02-26T10:46:03;11.10;99.90
32865;DHT22;19219;44.500;11.188;2024-02-26T10:48:30;11.20;99.90
32865;DHT22;19219;44.500;11.188;2024-02-26T10:50:56;11.20;99.90
32865;DHT22;19219;44.500;11.188;2024-02-26T10:53:26;11.20;99.90
32865;DHT22;19219;44.500;11.188;2024-02-26T10:56:04;11.30;99.90
32865;DHT22;19219;44.500;11.188;2024-02-26T10:58:31;11.30;99.90
32865;DHT22;19219;44.500;11.188;2024-02-26T11:00:57;11.40;99.90
32865;DHT22;19219;44.500;11.188;2024-02-26T11:03:24;11.40;99.90
32865;DHT22;19219;44.500;11.188;2024-02-26T11:05:50;11.40;99.90
32865;DHT22;19219;44.500;11.188;2024-02-26T11:08:20;11.40;99.90
32865;DHT22;19219;44.500;11.188;2024-02-26T11:10:47;11.40;99.90
32865;DHT22;19219;44.500;11.188;2024-02-26T11:13:15;11.30;99.90
32865;DHT22;19219;44.500;11.188;2024-02-26T11:15:46;11.30;99.90
32865;DHT22;19219;44.500;11.188;2024-02-26T11:18:14;11.20;99.90
32865;DHT22;19219;44.500;11.188;2024-02-26T11:20:41;11.10;99.90
32865;DHT22;19219;44.500;11.188;2024-02-26T11:23:09;11.10;99.90
32865;DHT22;19219;44.500;11.188;2024-02-26T11:25:38;11.10;99.90
32865;DHT22;19219;44.500;11.188;2024-02-26T11:28:11;11.10;99.90
32865;DHT22;19219;44.500;11.188;2024-02-26T11:30:43;11.10;99.90
32865;DHT22;19219;44.500;11.188;2024-02-26T11:33:10;11.10;99.90
32865;DHT22;19219;44.500;11.188;2024-02-26T11:35:37;11.20;99.90
32865;DHT22;19219;44.500;11.188;2024-02-26T11:38:03;11.20;99.90
32865;DHT22;19219;44.500;11.188;2024-02-26T11:40:31;11.00;99.90
32865;DHT22;19219;44.500;11.188;2024-02-26T11:42:58;11.00;99.90
32865;DHT22;19219;44.500;11.188;2024-02-26T11:48:24;11.00;99.90
32865;DHT22;19219;44.500;11.188;2024-02-26T11:50:58;10.90;99.90
32865;DHT22;19219;44.500;11.188;2024-02-26T11:58:45;10.90;99.90
32865;DHT22;19219;44.500;11.188;2024-02-26T12:01:39;11.00;99.90
32865;DHT22;19219;44.500;11.188;2024-02-26T12:04:21;10.90;99.90
32865;DHT22;19219;44.500;11.188;2024-02-26T12:06:50;10.90;99.90
32865;DHT22;19219;44.500;11.188;2024-02-26T12:09:41;10.90;99.90
32865;DHT22;19219;44.500;11.188;2024-02-26T12:12:13;10.90;99.90
32865;DHT22;19219;44.500;11.188;2024-02-26T12:14:53;10.90;99.90
32865;DHT22;19219;44.500;11.188;2024-02-26T12:17:22;10.90;99.90
32865;DHT22;19219;44.500;11.188;2024-02-26T12:19:49;10.90;99.90
32865;DHT22;19219;44.500;11.188;2024-02-26T12:22:15;11.00;99.90
32865;DHT22;19219;44.500;11.188;2024-02-26T12:24:41;11.10;99.90
32865;DHT22;19219;44.500;11.188;2024-02-26T12:27:07;11.10;99.90
32865;DHT22;19219;44.500;11.188;2024-02-26T12:29:32;11.20;99.90
32865;DHT22;19219;44.500;11.188;2024-02-26T12:31:58;11.20;99.90
32865;DHT22;19219;44.500;11.188;2024-02-26T12:34:24;11.00;99.90
32865;DHT22;19219;44.500;11.188;2024-02-26T12:36:50;10.80;99.90
32865;DHT22;19219;44.500;11.188;2024-02-26T12:39:16;10.70;99.90
32865;DHT22;19219;44.500;11.188;2024-02-26T12:41:42;10.70;99.90
32865;DHT22;19219;44.500;11.188;2024-02-26T12:44:17;10.70;99.90
32865;DHT22;19219;44.500;11.188;2024-02-26T12:46:43;10.70;99.90
32865;DHT22;19219;44.500;11.188;2024-02-26T12:49:14;10.50;99.90
32865;DHT22;19219;44.500;11.188;2024-02-26T12:51:40;10.50;99.90
32865;DHT22;19219;44.500;11.188;2024-02-26T12:54:07;10.50;99.90
32865;DHT22;19219;44.500;11.188;2024-02-26T12:56:34;10.60;99.90
32865;DHT22;19219;44.500;11.188;2024-02-26T12:59:00;10.70;99.90
32865;DHT22;19219;44.500;11.188;2024-02-26T13:01:26;10.70;99.90
32865;DHT22;19219;44.500;11.188;2024-02-26T13:03:53;10.80;99.90
32865;DHT22;19219;44.500;11.188;2024-02-26T13:06:19;10.80;99.90
32865;DHT22;19219;44.500;11.188;2024-02-26T13:08:47;10.70;99.90
32865;DHT22;19219;44.500;11.188;2024-02-26T13:11:13;10.70;99.90
32865;DHT22;19219;44.500;11.188;2024-02-26T13:13:39;10.80;99.90
32865;DHT22;19219;44.500;11.188;2024-02-26T13:16:06;10.70;99.90
32865;DHT22;19219;44.500;11.188;2024-02-26T13:18:33;10.70;99.90
32865;DHT22;19219;44.500;11.188;2024-02-26T13:21:12;10.60;99.90
32865;DHT22;19219;44.500;11.188;2024-02-26T13:23:39;10.60;99.90
32865;DHT22;19219;44.500;11.188;2024-02-26T13:26:06;10.70;99.90
32865;DHT22;19219;44.500;11.188;2024-02-26T13:28:32;10.80;99.90
32865;DHT22;19219;44.500;11.188;2024-02-26T13:30:58;10.90;99.90
32865;DHT22;19219;44.500;11.188;2024-02-26T13:33:29;11.00;99.90
32865;DHT22;19219;44.500;11.188;2024-02-26T13:35:56;11.10;99.90
32865;DHT22;19219;44.500;11.188;2024-02-26T13:38:22;11.20;99.90
32865;DHT22;19219;44.500;11.188;2024-02-26T13:40:49;11.40;99.90
32865;DHT22;19219;44.500;11.188;2024-02-26T13:43:15;11.70;99.90
32865;DHT22;19219;44.500;11.188;2024-02-26T13:45:40;11.80;99.90
32865;DHT22;19219;44.500;11.188;2024-02-26T13:48:08;11.70;99.90
32865;DHT22;19219;44.500;11.188;2024-02-26T13:50:35;11.80;99.90
32865;DHT22;19219;44.500;11.188;2024-02-26T13:53:01;11.90;99.90
32865;DHT22;19219;44.500;11.188;2024-02-26T13:55:27;12.10;99.90
32865;DHT22;19219;44.500;11.188;2024-02-26T13:57:58;12.20;99.90
32865;DHT22;19219;44.500;11.188;2024-02-26T14:00:24;12.10;99.90
32865;DHT22;19219;44.500;11.188;2024-02-26T14:02:52;12.10;99.90
32865;DHT22;19219;44.500;11.188;2024-02-26T14:05:18;12.20;99.90
32865;DHT22;19219;44.500;11.188;2024-02-26T14:07:43;12.10;99.90
32865;DHT22;19219;44.500;11.188;2024-02-26T14:10:12;12.00;99.90
32865;DHT22;19219;44.500;11.188;2024-02-26T14:12:38;11.80;99.90
32865;DHT22;19219;44.500;11.188;2024-02-26T14:15:08;11.70;99.90
32865;DHT22;19219;44.500;11.188;2024-02-26T14:17:36;11.70;99.90
32865;DHT22;19219;44.500;11.188;2024-02-26T14:20:02;11.60;99.90
32865;DHT22;19219;44.500;11.188;2024-02-26T14:22:28;11.60;99.90
32865;DHT22;19219;44.500;11.188;2024-02-26T14:24:56;11.60;99.90
32865;DHT22;19219;44.500;11.188;2024-02-26T14:27:22;11.60;99.90
32865;DHT22;19219;44.500;11.188;2024-02-26T14:29:48;11.50;99.90
32865;DHT22;19219;44.500;11.188;2024-02-26T14:32:14;11.50;99.90
32865;DHT22;19219;44.500;11.188;2024-02-26T14:34:40;11.40;99.90
32865;DHT22;19219;44.500;11.188;2024-02-26T14:37:06;11.40;99.90
32865;DHT22;19219;44.500;11.188;2024-02-26T14:39:34;11.50;99.90
32865;DHT22;19219;44.500;11.188;2024-02-26T14:42:00;11.60;99.90
32865;DHT22;19219;44.500;11.188;2024-02-26T14:44:26;11.80;99.90
32865;DHT22;19219;44.500;11.188;2024-02-26T14:46:52;11.90;99.90
32865;DHT22;19219;44.500;11.188;2024-02-26T14:49:18;11.90;99.90
32865;DHT22;19219;44.500;11.188;2024-02-26T14:51:44;12.00;99.90
32865;DHT22;19219;44.500;11.188;2024-02-26T14:54:14;11.90;99.90
32865;DHT22;19219;44.500;11.188;2024-02-26T14:56:40;11.80;99.90
32865;DHT22;19219;44.500;11.188;2024-02-26T14:59:06;11.70;99.90
32865;DHT22;19219;44.500;11.188;2024-02-26T15:01:32;11.50;99.90
32865;DHT22;19219;44.500;11.188;2024-02-26T15:03:58;11.40;99.90
32865;DHT22;19219;44.500;11.188;2024-02-26T15:06:24;11.40;99.90
32865;DHT22;19219;44.500;11.188;2024-02-26T15:08:51;11.40;99.90
32865;DHT22;19219;44.500;11.188;2024-02-26T15:11:17;11.30;99.90
32865;DHT22;19219;44.500;11.188;2024-02-26T15:13:43;11.30;99.90
32865;DHT22;19219;44.500;11.188;2024-02-26T15:16:08;11.30;99.90
32865;DHT22;19219;44.500;11.188;2024-02-26T15:18:36;11.30;99.90
32865;DHT22;19219;44.500;11.188;2024-02-26T15:21:02;11.20;99.90
32865;DHT22;19219;44.500;11.188;2024-02-26T15:23:28;11.30;99.90
32865;DHT22;19219;44.500;11.188;2024-02-26T15:25:54;11.40;99.90
32865;DHT22;19219;44.500;11.188;2024-02-26T15:28:20;11.50;99.90
32865;DHT22;19219;44.500;11.188;2024-02-26T15:30:46;11.50;99.90